createdAt,value
2023-02-11T00:01:14.606Z,37.00
2023-02-11T00:03:42.544Z,37.03
2023-02-11T00:06:12.324Z,32.97
2023-02-11T00:08:40.712Z,36.70
2023-02-11T00:11:08.751Z,35.42
2023-02-11T00:13:36.683Z,33.38
2023-02-11T00:16:08.980Z,40.70
2023-02-11T00:18:37.358Z,37.92
2023-02-11T00:21:09.524Z,34.17
2023-02-11T00:23:39.662Z,40.38
2023-02-11T00:26:14.202Z,39.70
2023-02-11T00:28:42.161Z,35.33
2023-02-11T00:31:10.266Z,42.72
2023-02-11T00:33:38.288Z,39.60
2023-02-11T00:36:06.744Z,35.78
2023-02-11T00:38:34.808Z,34.67
2023-02-11T00:41:04.532Z,41.78
2023-02-11T00:43:32.446Z,32.58
2023-02-11T00:46:00.558Z,35.55
2023-02-11T00:48:28.828Z,41.17
2023-02-11T00:50:56.800Z,33.20
2023-02-11T00:53:24.749Z,35.47
2023-02-11T00:55:52.794Z,38.03
2023-02-11T00:58:22.542Z,41.33
2023-02-11T01:00:50.797Z,32.95
2023-02-11T01:03:18.722Z,33.97
2023-02-11T01:05:46.646Z,36.35
2023-02-11T01:08:14.659Z,34.92
2023-02-11T01:10:43.976Z,39.45
2023-02-11T01:13:12.111Z,31.92
2023-02-11T01:15:41.427Z,37.55
2023-02-11T01:18:09.337Z,29.65
2023-02-11T01:20:37.387Z,35.00
2023-02-11T01:23:05.317Z,31.05
2023-02-11T01:25:33.232Z,35.92
2023-02-11T01:28:01.155Z,38.63
2023-02-11T01:30:29.252Z,35.45
2023-02-11T01:32:58.564Z,30.33
2023-02-11T01:35:26.469Z,31.33
2023-02-11T01:37:54.376Z,28.00
2023-02-11T01:40:22.272Z,35.45
2023-02-11T01:42:51.144Z,38.67
2023-02-11T01:45:58.441Z,40.90
2023-02-11T01:48:30.360Z,40.33
2023-02-11T01:51:02.603Z,43.42
2023-02-11T01:53:48.792Z,42.30
2023-02-11T01:56:35.007Z,41.00
2023-02-11T01:59:07.478Z,39.60
2023-02-11T02:01:36.032Z,43.85
2023-02-11T02:04:06.296Z,38.28
2023-02-11T02:06:36.380Z,44.95
2023-02-11T02:09:07.448Z,36.17
2023-02-11T02:11:35.377Z,37.13
2023-02-11T02:14:03.432Z,34.85
2023-02-11T02:16:33.852Z,34.40
2023-02-11T02:19:35.896Z,40.17
2023-02-11T02:22:33.542Z,40.30
2023-02-11T02:25:11.655Z,40.35
2023-02-11T02:27:47.010Z,37.15
2023-02-11T02:30:35.433Z,33.92
2023-02-11T02:33:24.016Z,33.15
2023-02-11T02:35:58.691Z,36.72
2023-02-11T02:38:29.752Z,30.50
2023-02-11T02:41:00.888Z,38.65
2023-02-11T02:43:30.176Z,47.30
2023-02-11T02:46:11.403Z,34.33
2023-02-11T02:48:40.718Z,35.42
2023-02-11T02:51:18.983Z,61.58
2023-02-11T02:53:58.760Z,42.15
2023-02-11T02:56:33.403Z,40.03
2023-02-11T02:59:27.717Z,56.92
2023-02-11T03:02:00.033Z,46.70
2023-02-11T03:04:35.723Z,40.30
2023-02-11T03:07:07.235Z,43.80
2023-02-11T03:09:37.510Z,44.30
2023-02-11T03:12:06.341Z,48.97
2023-02-11T03:14:35.168Z,50.63
2023-02-11T03:17:05.751Z,50.28
2023-02-11T03:19:37.777Z,50.28
2023-02-11T03:22:08.936Z,50.60
2023-02-11T03:24:39.235Z,43.55
2023-02-11T03:27:12.412Z,50.97
2023-02-11T03:29:44.044Z,43.17
2023-02-11T03:32:16.584Z,51.75
2023-02-11T03:34:49.167Z,46.92
2023-02-11T03:37:19.731Z,52.60
2023-02-11T03:39:50.120Z,53.38
2023-02-11T03:42:18.196Z,54.60
2023-02-11T03:44:50.570Z,49.45
2023-02-11T03:47:21.355Z,56.78
2023-02-11T03:49:51.350Z,53.33
2023-02-11T03:52:20.301Z,48.55
2023-02-11T03:54:50.007Z,54.45
2023-02-11T03:57:17.907Z,55.60
2023-02-11T03:59:53.847Z,49.53
2023-02-11T04:02:22.696Z,52.15
2023-02-11T04:04:51.987Z,57.30
2023-02-11T04:07:19.867Z,62.07
2023-02-11T04:09:47.813Z,53.70
2023-02-11T04:12:15.726Z,53.67
2023-02-11T04:14:43.713Z,57.70
2023-02-11T04:17:12.004Z,57.90
2023-02-11T04:19:40.157Z,57.63
2023-02-11T04:22:09.531Z,58.43
2023-02-11T04:24:37.647Z,56.60
2023-02-11T04:27:05.685Z,49.40
2023-02-11T04:29:33.577Z,54.42
2023-02-11T04:32:01.572Z,49.80
2023-02-11T04:34:29.555Z,55.40
2023-02-11T04:36:57.524Z,53.83
2023-02-11T04:39:26.854Z,52.83
2023-02-11T04:41:54.762Z,48.47
2023-02-11T04:44:22.686Z,57.07
2023-02-11T04:46:50.606Z,56.40
2023-02-11T04:49:19.016Z,46.50
2023-02-11T04:51:49.316Z,53.70
2023-02-11T04:54:17.823Z,54.50
2023-02-11T04:56:47.266Z,55.03
2023-02-11T04:59:15.281Z,45.20
2023-02-11T05:01:43.532Z,39.73
2023-02-11T05:04:11.518Z,45.10
2023-02-11T05:06:40.278Z,50.57
2023-02-11T05:09:08.268Z,36.57
2023-02-11T05:11:36.712Z,46.80
2023-02-11T05:14:06.085Z,39.20
2023-02-11T05:16:34.246Z,50.07
2023-02-11T05:19:02.249Z,35.20
2023-02-11T05:21:30.253Z,35.57
2023-02-11T05:23:58.171Z,36.50
2023-02-11T05:26:26.477Z,34.60
2023-02-11T05:28:54.413Z,34.80
2023-02-11T05:31:23.760Z,34.10
2023-02-11T05:33:51.679Z,29.50
2023-02-11T05:36:19.640Z,38.33
2023-02-11T05:38:47.589Z,33.47
2023-02-11T05:41:15.508Z,35.77
2023-02-11T05:43:43.454Z,37.90
2023-02-11T05:46:11.404Z,35.27
2023-02-11T05:48:40.698Z,32.43
2023-02-11T05:51:08.620Z,31.60
2023-02-11T05:53:36.551Z,41.63
2023-02-11T05:56:04.674Z,33.60
2023-02-11T05:58:33.840Z,33.37
2023-02-11T06:01:01.742Z,35.60
2023-02-11T06:03:29.748Z,28.83
2023-02-11T06:05:59.075Z,32.50
2023-02-11T06:08:26.996Z,30.40
2023-02-11T06:10:54.902Z,33.83
2023-02-11T06:13:22.833Z,34.50
2023-02-11T06:15:57.379Z,28.90
2023-02-11T06:18:25.419Z,38.20
2023-02-11T06:20:53.360Z,30.60
2023-02-11T06:23:22.728Z,37.20
2023-02-11T06:25:51.169Z,32.50
2023-02-11T06:28:19.590Z,30.83
2023-02-11T06:30:47.525Z,49.07
2023-02-11T06:33:15.514Z,31.97
2023-02-11T06:35:43.440Z,36.43
2023-02-11T06:38:11.346Z,35.73
2023-02-11T06:40:41.244Z,31.57
2023-02-11T06:43:09.176Z,32.87
2023-02-11T06:45:37.079Z,33.60
2023-02-11T06:48:05.093Z,30.83
2023-02-11T06:50:33.034Z,33.70
2023-02-11T06:53:01.221Z,64.87
2023-02-11T06:55:29.131Z,40.90
2023-02-11T06:57:58.408Z,33.60
2023-02-11T07:00:26.633Z,37.00
2023-02-11T07:02:54.578Z,32.40
2023-02-11T07:05:22.726Z,36.77
2023-02-11T07:07:50.692Z,48.40
2023-02-11T07:10:18.670Z,42.67
2023-02-11T07:12:46.563Z,43.33
2023-02-11T07:15:15.841Z,36.87
2023-02-11T07:17:43.734Z,35.60
2023-02-11T07:20:14.691Z,41.87
2023-02-11T07:22:42.650Z,39.77
2023-02-11T07:25:10.598Z,40.80
2023-02-11T07:27:38.529Z,38.00
2023-02-11T07:30:07.554Z,35.27
2023-02-11T07:32:36.926Z,41.43
2023-02-11T07:35:05.684Z,38.70
2023-02-11T07:37:34.816Z,40.50
2023-02-11T07:40:02.824Z,39.30
2023-02-11T07:42:30.781Z,38.77
2023-02-11T07:44:58.659Z,40.97
2023-02-11T07:47:26.936Z,34.90
2023-02-11T07:49:56.770Z,39.67
2023-02-11T07:52:24.746Z,38.27
2023-02-11T07:54:52.637Z,37.83
2023-02-11T07:57:20.533Z,36.23
2023-02-11T07:59:48.474Z,40.13
2023-02-11T08:02:16.506Z,34.57
2023-02-11T08:04:44.443Z,40.00
2023-02-11T08:07:15.575Z,38.87
2023-02-11T08:09:43.538Z,40.27
2023-02-11T08:12:11.489Z,56.90
2023-02-11T08:14:39.674Z,39.63
2023-02-11T08:17:07.584Z,37.83
2023-02-11T08:19:35.493Z,37.67
2023-02-11T08:22:03.626Z,37.30
2023-02-11T08:24:32.959Z,42.00
2023-02-11T08:27:00.855Z,42.40
2023-02-11T08:29:28.744Z,40.50
2023-02-11T08:31:56.704Z,37.83
2023-02-11T08:34:24.637Z,47.60
2023-02-11T08:36:52.506Z,40.10
2023-02-11T08:39:22.571Z,41.60
2023-02-11T08:41:53.241Z,45.30
2023-02-11T08:44:22.521Z,42.80
2023-02-11T08:46:51.332Z,41.97
2023-02-11T08:49:19.334Z,39.60
2023-02-11T08:51:47.569Z,46.50
2023-02-11T08:54:15.754Z,52.87
2023-02-11T08:56:43.886Z,48.63
2023-02-11T08:59:14.946Z,44.63
2023-02-11T09:01:44.268Z,45.00
2023-02-11T09:04:12.513Z,44.27
2023-02-11T09:06:40.711Z,44.60
2023-02-11T09:09:12.179Z,59.07
2023-02-11T09:11:41.422Z,46.50
2023-02-11T09:14:09.814Z,45.87
2023-02-11T09:16:39.088Z,55.83
2023-02-11T09:19:07.114Z,51.63
2023-02-11T09:21:35.006Z,46.23
2023-02-11T09:24:02.914Z,43.17
2023-02-11T09:26:33.375Z,41.43
2023-02-11T09:29:01.929Z,50.43
2023-02-11T09:31:31.757Z,51.57
2023-02-11T09:34:02.711Z,49.17
2023-02-11T09:36:33.047Z,40.73
2023-02-11T09:39:02.309Z,46.73
2023-02-11T09:41:44.511Z,60.13
2023-02-11T09:44:19.931Z,44.73
2023-02-11T09:46:51.743Z,58.33
2023-02-11T09:49:24.548Z,41.17
2023-02-11T09:51:55.292Z,41.63
2023-02-11T09:54:28.685Z,40.50
2023-02-11T09:56:56.581Z,41.83
2023-02-11T09:59:24.555Z,40.03
2023-02-11T10:01:56.429Z,44.00
2023-02-11T10:04:38.008Z,48.23
2023-02-11T10:07:13.222Z,35.80
2023-02-11T10:09:54.351Z,40.33
2023-02-11T10:12:43.172Z,43.20
2023-02-11T10:15:19.815Z,42.60
2023-02-11T10:18:02.462Z,38.27
2023-02-11T10:20:34.941Z,42.90
2023-02-11T10:23:06.769Z,42.37
2023-02-11T10:25:36.445Z,37.97
2023-02-11T10:28:17.453Z,45.93
2023-02-11T10:30:52.638Z,41.53
2023-02-11T10:33:24.752Z,36.10
2023-02-11T10:35:54.133Z,34.53
2023-02-11T10:38:22.057Z,37.73
2023-02-11T10:40:50.281Z,38.93
2023-02-11T10:43:20.536Z,41.40
2023-02-11T10:45:50.663Z,41.17
2023-02-11T10:48:39.242Z,57.90
2023-02-11T10:51:18.434Z,37.57
2023-02-11T10:53:47.190Z,38.07
2023-02-11T10:56:22.990Z,38.13
2023-02-11T10:58:57.763Z,38.57
2023-02-11T11:01:39.434Z,35.70
2023-02-11T11:04:07.458Z,39.00
2023-02-11T11:06:36.763Z,37.73
2023-02-11T11:09:04.810Z,44.60
2023-02-11T11:11:32.694Z,34.20
2023-02-11T11:14:01.682Z,39.30
2023-02-11T11:16:30.386Z,30.70
2023-02-11T11:19:17.378Z,32.80
2023-02-11T11:21:47.889Z,36.10
2023-02-11T11:24:19.274Z,35.97
2023-02-11T11:26:49.135Z,35.60
2023-02-11T11:29:19.285Z,33.20
2023-02-11T11:31:50.044Z,39.17
2023-02-11T11:34:24.404Z,33.37
2023-02-11T11:36:53.724Z,38.10
2023-02-11T11:39:24.591Z,35.23
2023-02-11T11:41:57.426Z,37.07
2023-02-11T11:44:31.282Z,33.80
2023-02-11T11:47:21.915Z,35.77
2023-02-11T11:49:56.436Z,33.63
2023-02-11T11:52:36.488Z,69.37
2023-02-11T11:55:08.117Z,44.50
2023-02-11T11:57:39.441Z,29.43
2023-02-11T12:00:16.442Z,43.80
2023-02-11T12:03:01.202Z,27.37
2023-02-11T12:05:35.917Z,29.50
2023-02-11T12:08:15.435Z,25.70
2023-02-11T12:10:51.604Z,27.10
2023-02-11T12:13:31.432Z,27.60
2023-02-11T12:16:07.159Z,31.50
2023-02-11T12:18:47.923Z,27.23
2023-02-11T12:21:26.265Z,22.97
2023-02-11T12:24:07.821Z,26.30
2023-02-11T12:26:41.272Z,25.67
2023-02-11T12:29:16.714Z,33.67
2023-02-11T12:31:56.309Z,27.10
2023-02-11T12:34:58.569Z,44.53
2023-02-11T12:37:37.415Z,43.10
2023-02-11T12:40:16.090Z,26.13
2023-02-11T12:43:10.890Z,22.57
2023-02-11T12:45:59.166Z,23.10
2023-02-11T12:48:41.736Z,23.03
2023-02-11T12:51:15.920Z,25.57
2023-02-11T12:53:54.767Z,24.10
2023-02-11T12:56:27.171Z,23.90
2023-02-11T12:58:57.779Z,22.27
2023-02-11T13:01:28.766Z,21.40
2023-02-11T13:04:00.278Z,24.40
2023-02-11T13:06:30.800Z,24.57
2023-02-11T13:09:03.318Z,26.20
2023-02-11T13:11:38.509Z,26.90
2023-02-11T13:14:12.132Z,26.10
2023-02-11T13:16:42.670Z,26.13
2023-02-11T13:19:19.207Z,25.23
2023-02-11T13:22:01.354Z,22.80
2023-02-11T13:24:37.740Z,25.80
2023-02-11T13:27:16.492Z,23.07
2023-02-11T13:30:12.825Z,25.40
2023-02-11T13:33:06.595Z,22.67
2023-02-11T13:35:36.545Z,26.60
2023-02-11T13:38:06.180Z,23.47
2023-02-11T13:40:35.886Z,20.70
2023-02-11T13:43:06.768Z,27.10
2023-02-11T13:45:39.661Z,32.13
2023-02-11T13:48:14.879Z,29.20
2023-02-11T13:50:48.909Z,30.83
2023-02-11T13:53:18.516Z,27.17
2023-02-11T13:55:48.206Z,26.83
2023-02-11T13:58:37.176Z,27.17
2023-02-11T14:01:05.629Z,25.87
2023-02-11T14:03:56.355Z,25.57
2023-02-11T14:06:44.089Z,20.97
2023-02-11T14:09:35.134Z,22.90
2023-02-11T14:12:26.213Z,26.33
2023-02-11T14:15:24.194Z,25.90
2023-02-11T14:17:52.483Z,22.00
2023-02-11T14:20:36.552Z,31.50
2023-02-11T14:23:05.739Z,27.80
2023-02-11T14:25:33.760Z,27.63
2023-02-11T14:28:08.579Z,29.80
2023-02-11T14:30:47.920Z,24.53
2023-02-11T14:33:25.155Z,27.23
2023-02-11T14:36:02.650Z,26.20
2023-02-11T14:38:42.135Z,25.60
2023-02-11T14:41:15.012Z,23.53
2023-02-11T14:43:47.183Z,22.70
2023-02-11T14:46:17.928Z,26.50
2023-02-11T14:48:48.208Z,23.00
2023-02-11T14:51:20.529Z,28.67
2023-02-11T14:53:51.030Z,23.00
2023-02-11T14:56:20.894Z,28.40
2023-02-11T14:58:51.796Z,26.20
2023-02-11T15:01:29.044Z,27.30
2023-02-11T15:03:58.411Z,28.73
2023-02-11T15:06:28.265Z,23.90
2023-02-11T15:09:00.933Z,25.70
2023-02-11T15:11:31.157Z,24.53
2023-02-11T15:14:01.146Z,41.67
2023-02-11T15:16:30.503Z,36.60
2023-02-11T15:19:04.336Z,25.07
2023-02-11T15:21:33.918Z,30.87
2023-02-11T15:24:05.988Z,27.53
2023-02-11T15:26:34.399Z,28.00
2023-02-11T15:29:02.290Z,32.90
2023-02-11T15:31:34.890Z,24.53
2023-02-11T15:34:08.438Z,32.63
2023-02-11T15:36:36.425Z,34.73
2023-02-11T15:39:32.412Z,32.17
2023-02-11T15:42:22.198Z,25.43
2023-02-11T15:44:56.557Z,23.90
2023-02-11T15:47:26.284Z,28.73
2023-02-11T15:49:54.204Z,34.27
2023-02-11T15:52:28.750Z,23.67
2023-02-11T15:54:59.419Z,28.17
2023-02-11T15:57:27.428Z,26.50
2023-02-11T15:59:56.332Z,24.83
2023-02-11T16:02:28.817Z,24.70
2023-02-11T16:04:58.366Z,26.77
2023-02-11T16:07:44.808Z,26.00
2023-02-11T16:10:25.802Z,28.00
2023-02-11T16:12:55.895Z,31.60
2023-02-11T16:15:32.608Z,33.03
2023-02-11T16:18:02.539Z,25.93
2023-02-11T16:20:30.432Z,26.20
2023-02-11T16:22:58.486Z,32.20
2023-02-11T16:25:26.424Z,24.27
2023-02-11T16:27:54.964Z,30.67
2023-02-11T16:30:27.634Z,27.47
2023-02-11T16:32:55.727Z,30.27
2023-02-11T16:35:24.998Z,24.83
2023-02-11T16:37:52.897Z,26.97
2023-02-11T16:40:20.959Z,27.57
2023-02-11T16:42:49.308Z,24.43
2023-02-11T16:45:17.355Z,27.93
2023-02-11T16:47:46.179Z,26.17
2023-02-11T16:50:21.368Z,22.77
2023-02-11T16:52:52.330Z,21.33
2023-02-11T16:55:21.986Z,31.87
2023-02-11T16:57:50.344Z,21.97
2023-02-11T17:00:19.288Z,30.83
2023-02-11T17:02:47.233Z,23.33
2023-02-11T17:05:18.643Z,24.53
2023-02-11T17:07:46.611Z,25.80
2023-02-11T17:10:17.350Z,23.73
2023-02-11T17:12:45.417Z,27.47
2023-02-11T17:15:13.530Z,24.37
2023-02-11T17:17:41.404Z,25.33
2023-02-11T17:20:12.274Z,25.90
2023-02-11T17:22:40.271Z,25.53
2023-02-11T17:25:08.302Z,25.23
2023-02-11T17:27:37.630Z,24.07
2023-02-11T17:30:06.416Z,26.17
2023-02-11T17:32:34.533Z,29.53
2023-02-11T17:35:02.423Z,29.93
2023-02-11T17:37:30.451Z,27.90
2023-02-11T17:39:58.373Z,29.63
2023-02-11T17:42:26.819Z,27.03
2023-02-11T17:44:56.114Z,27.33
2023-02-11T17:47:24.017Z,29.70
2023-02-11T17:49:51.929Z,23.00
2023-02-11T17:52:20.870Z,24.83
2023-02-11T17:54:48.882Z,30.77
2023-02-11T17:57:16.826Z,27.70
2023-02-11T17:59:44.747Z,27.17
2023-02-11T18:02:14.419Z,26.77
2023-02-11T18:04:42.574Z,24.13
2023-02-11T18:07:10.569Z,22.97
2023-02-11T18:09:39.520Z,29.37
2023-02-11T18:12:08.861Z,31.10
2023-02-11T18:14:36.848Z,26.70
2023-02-11T18:17:04.769Z,28.40
2023-02-11T18:19:35.967Z,31.10
2023-02-11T18:22:04.431Z,29.73
2023-02-11T18:24:32.925Z,29.47
2023-02-11T18:27:00.800Z,34.00
2023-02-11T18:29:28.730Z,32.83
2023-02-11T18:31:57.838Z,30.00
2023-02-11T18:34:26.398Z,33.57
2023-02-11T18:36:55.666Z,30.50
2023-02-11T18:39:24.344Z,26.70
2023-02-11T18:41:54.632Z,29.17
2023-02-11T18:44:24.676Z,35.90
2023-02-11T18:46:52.756Z,30.50
2023-02-11T18:49:21.135Z,28.93
2023-02-11T18:51:49.070Z,29.17
2023-02-11T18:54:18.344Z,36.80
2023-02-11T18:56:46.522Z,29.13
2023-02-11T18:59:14.450Z,37.53
2023-02-11T19:01:43.377Z,26.57
2023-02-11T19:04:11.464Z,31.30
2023-02-11T19:06:39.566Z,28.50
2023-02-11T19:09:09.883Z,27.03
2023-02-11T19:11:50.396Z,33.70
2023-02-11T19:14:21.146Z,27.87
2023-02-11T19:16:50.645Z,29.07
2023-02-11T19:19:18.791Z,31.63
2023-02-11T19:21:47.410Z,29.90
2023-02-11T19:24:18.879Z,27.40
2023-02-11T19:26:48.709Z,24.90
2023-02-11T19:29:17.113Z,27.57
2023-02-11T19:31:45.584Z,29.10
2023-02-11T19:34:15.187Z,39.10
2023-02-11T19:36:43.240Z,32.93
2023-02-11T19:39:11.394Z,30.67
2023-02-11T19:41:40.592Z,34.80
2023-02-11T19:44:10.214Z,36.27
2023-02-11T19:46:40.871Z,29.10
2023-02-11T19:49:09.912Z,32.07
2023-02-11T19:51:39.326Z,33.27
2023-02-11T19:54:07.924Z,28.37
2023-02-11T19:56:37.868Z,33.97
2023-02-11T19:59:08.889Z,36.20
2023-02-11T20:01:38.366Z,34.27
2023-02-11T20:04:06.783Z,29.10
2023-02-11T20:06:35.295Z,26.57
2023-02-11T20:09:06.125Z,28.37
2023-02-11T20:11:35.067Z,31.17
2023-02-11T20:14:03.212Z,30.17
2023-02-11T20:16:46.984Z,29.63
2023-02-11T20:19:18.502Z,28.40
2023-02-11T20:21:47.903Z,31.30
2023-02-11T20:24:16.137Z,29.60
2023-02-11T20:26:45.269Z,28.97
2023-02-11T20:29:13.288Z,32.73
2023-02-11T20:31:41.332Z,36.10
2023-02-11T20:34:09.424Z,29.77
2023-02-11T20:36:40.253Z,38.80
2023-02-11T20:39:08.588Z,36.80
2023-02-11T20:41:39.845Z,35.63
2023-02-11T20:44:09.533Z,41.00
2023-02-11T20:46:40.051Z,30.50
2023-02-11T20:49:08.818Z,32.20
2023-02-11T20:51:38.139Z,32.80
2023-02-11T20:54:07.183Z,33.67
2023-02-11T20:56:36.856Z,32.00
2023-02-11T20:59:05.611Z,35.37
2023-02-11T21:01:35.707Z,35.33
2023-02-11T21:04:05.560Z,33.93
2023-02-11T21:06:35.606Z,35.77
2023-02-11T21:09:05.512Z,47.03
2023-02-11T21:11:33.743Z,36.60
2023-02-11T21:14:02.412Z,34.80
2023-02-11T21:16:30.579Z,32.33
2023-02-11T21:18:58.544Z,41.70
2023-02-11T21:21:26.520Z,39.00
2023-02-11T21:23:56.078Z,41.13
2023-02-11T21:26:25.550Z,41.73
2023-02-11T21:28:55.146Z,35.50
2023-02-11T21:31:25.091Z,34.10
2023-02-11T21:33:55.059Z,39.00
2023-02-11T21:36:23.274Z,37.53
2023-02-11T21:38:51.336Z,34.20
2023-02-11T21:41:21.837Z,35.87
2023-02-11T21:43:51.222Z,40.43
2023-02-11T21:46:19.948Z,36.17
2023-02-11T21:48:48.309Z,38.17
2023-02-11T21:51:18.047Z,35.67
2023-02-11T21:53:46.022Z,37.40
2023-02-11T21:56:16.515Z,39.30
2023-02-11T21:58:44.638Z,40.40
2023-02-11T22:01:15.665Z,36.07
2023-02-11T22:03:43.990Z,43.00
2023-02-11T22:06:13.858Z,40.73
2023-02-11T22:08:42.274Z,39.20
2023-02-11T22:11:12.719Z,41.43
2023-02-11T22:13:41.148Z,40.23
2023-02-11T22:16:11.033Z,41.13
2023-02-11T22:18:40.516Z,42.60
2023-02-11T22:21:10.846Z,41.33
2023-02-11T22:23:39.659Z,38.20
2023-02-11T22:26:09.293Z,37.20
2023-02-11T22:28:38.987Z,37.40
2023-02-11T22:31:07.091Z,37.90
2023-02-11T22:33:35.160Z,40.37
2023-02-11T22:36:06.349Z,46.97
2023-02-11T22:38:34.698Z,41.20
2023-02-11T22:41:06.982Z,38.00
2023-02-11T22:43:34.976Z,41.13
2023-02-11T22:46:03.148Z,38.90
2023-02-11T22:48:31.190Z,42.07
2023-02-11T22:51:06.719Z,40.90
2023-02-11T22:53:34.615Z,44.37
2023-02-11T22:56:07.124Z,42.87
2023-02-11T22:58:35.504Z,36.63
2023-02-11T23:01:03.503Z,42.60
2023-02-11T23:03:31.821Z,44.33
2023-02-11T23:06:00.600Z,40.60
2023-02-11T23:08:30.838Z,42.43
2023-02-11T23:11:04.853Z,42.23
2023-02-11T23:13:34.936Z,39.03
2023-02-11T23:16:05.853Z,38.57
2023-02-11T23:18:34.271Z,39.57
2023-02-11T23:21:06.910Z,40.97
2023-02-11T23:23:36.542Z,39.60
2023-02-11T23:26:05.154Z,45.13
2023-02-11T23:28:33.076Z,40.83
2023-02-11T23:31:01.054Z,43.63
2023-02-11T23:33:28.992Z,46.73
2023-02-11T23:35:57.154Z,43.20
2023-02-11T23:38:25.073Z,42.70
2023-02-11T23:40:54.351Z,41.77
2023-02-11T23:43:24.311Z,38.73
2023-02-11T23:45:53.106Z,37.23
2023-02-11T23:48:21.157Z,43.70
2023-02-11T23:50:49.071Z,44.47
2023-02-11T23:53:17.044Z,38.03
2023-02-11T23:55:46.482Z,43.27
2023-02-11T23:58:16.222Z,43.60
